Time;durP1;ratioP1;P1;durP2;ratioP2;P2;SDS_P1;SDS_P2;PMS_P1;PMS_P2;Temp;Humidity;BMP_temperature;BMP_pressure;BME280_temperature;BME280_humidity;BME280_pressure;Samples;Min_cycle;Max_cycle;Signal;HPM_P1;HPM_P2
2021/09/26 00:01:20;;;;;;;6.70;4.50;;;17.90;99.90;;;;;;5082571;28;20054;-83
2021/09/26 00:03:46;;;;;;;9.02;4.45;;;17.90;99.90;;;;;;5078008;28;20033;-82
2021/09/26 00:06:12;;;;;;;8.40;4.30;;;18.00;99.90;;;;;;5081640;28;20027;-83
2021/09/26 00:08:38;;;;;;;6.43;3.92;;;18.00;99.90;;;;;;5082611;28;20035;-84
2021/09/26 00:11:06;;;;;;;7.65;4.50;;;18.00;99.90;;;;;;5078324;28;20162;-82
2021/09/26 00:13:36;;;;;;;9.82;4.57;;;18.10;99.90;;;;;;5090330;28;20067;-84
2021/09/26 00:16:03;;;;;;;8.37;4.60;;;18.10;99.90;;;;;;5079785;28;20092;-83
2021/09/26 00:18:29;;;;;;;8.77;4.55;;;18.10;99.90;;;;;;5079979;28;20107;-82
2021/09/26 00:20:55;;;;;;;7.40;3.85;;;18.00;99.90;;;;;;5089423;28;20115;-83
2021/09/26 00:23:21;;;;;;;7.45;4.10;;;18.00;99.90;;;;;;5084264;28;20070;-82
2021/09/26 00:25:47;;;;;;;9.10;4.40;;;17.90;99.90;;;;;;5078295;28;20523;-83
2021/09/26 00:28:14;;;;;;;10.93;4.50;;;18.00;99.90;;;;;;5086730;28;20048;-83
2021/09/26 00:30:40;;;;;;;11.70;4.70;;;17.90;99.90;;;;;;5081982;28;20077;-83
2021/09/26 00:33:05;;;;;;;12.43;5.00;;;17.90;99.90;;;;;;5080291;28;20082;-83
2021/09/26 00:35:31;;;;;;;18.33;5.32;;;18.00;99.90;;;;;;5085289;28;20025;-83
2021/09/26 00:37:57;;;;;;;14.13;4.63;;;17.90;99.90;;;;;;5079357;28;20029;-83
2021/09/26 00:40:22;;;;;;;7.30;4.30;;;17.80;99.90;;;;;;5082027;28;20076;-84
2021/09/26 00:42:48;;;;;;;15.10;4.72;;;17.80;99.90;;;;;;5082280;28;20025;-84
2021/09/26 00:45:14;;;;;;;13.98;5.00;;;17.70;99.90;;;;;;5079905;28;20023;-84
2021/09/26 00:47:40;;;;;;;9.30;4.80;;;17.60;99.90;;;;;;5085928;28;20093;-82
2021/09/26 00:50:07;;;;;;;8.68;5.05;;;17.60;99.90;;;;;;5079744;28;20044;-83
2021/09/26 00:52:33;;;;;;;7.50;4.35;;;17.60;99.90;;;;;;5078591;28;20388;-83
2021/09/26 00:54:58;;;;;;;8.50;4.53;;;17.50;99.90;;;;;;5081260;28;20023;-82
2021/09/26 00:57:24;;;;;;;7.35;4.38;;;17.50;99.90;;;;;;5078796;28;20058;-84
2021/09/26 00:59:50;;;;;;;9.32;4.60;;;17.50;99.90;;;;;;5077995;28;20085;-82
2021/09/26 01:02:16;;;;;;;6.78;4.45;;;17.50;99.90;;;;;;5081748;28;20031;-82
2021/09/26 01:04:43;;;;;;;6.85;4.32;;;17.50;99.90;;;;;;5086770;28;20510;-83
2021/09/26 01:07:42;;;;;;;8.45;4.05;;;17.50;99.90;;;;;;5091788;28;20035;-84
2021/09/26 01:10:40;;;;;;;9.65;4.63;;;17.40;99.90;;;;;;5063792;28;20059;-81
2021/09/26 01:13:32;;;;;;;7.15;4.38;;;17.40;99.90;;;;;;5085367;28;20031;-83
2021/09/26 01:16:22;;;;;;;7.85;4.10;;;17.40;99.90;;;;;;5084508;28;20150;-82
2021/09/26 01:19:02;;;;;;;7.20;3.90;;;17.40;99.90;;;;;;5094190;28;20039;-84
2021/09/26 01:21:51;;;;;;;6.30;3.78;;;17.40;99.90;;;;;;5090573;28;20100;-84
2021/09/26 01:24:19;;;;;;;7.53;4.10;;;17.40;99.90;;;;;;5080883;28;20095;-83
2021/09/26 01:27:20;;;;;;;6.95;4.63;;;17.40;99.90;;;;;;5079767;28;20028;-83
2021/09/26 01:30:34;;;;;;;8.30;3.47;;;17.40;99.90;;;;;;5091295;28;20257;-83
2021/09/26 01:33:21;;;;;;;7.70;3.33;;;17.40;99.90;;;;;;5060503;28;20052;-84
2021/09/26 01:36:27;;;;;;;9.77;4.38;;;17.40;99.90;;;;;;5080113;28;20020;-83
2021/09/26 01:39:16;;;;;;;7.10;3.85;;;17.30;99.90;;;;;;5080061;28;20131;-83
2021/09/26 01:42:07;;;;;;;4.60;2.50;;;17.20;99.90;;;;;;5078980;28;20354;-83
2021/09/26 01:44:41;;;;;;;5.13;2.90;;;17.20;99.90;;;;;;5080143;28;20111;-83
2021/09/26 01:47:11;;;;;;;4.13;2.38;;;17.20;99.90;;;;;;5085232;28;20082;-81
2021/09/26 01:49:45;;;;;;;5.63;2.10;;;17.10;99.90;;;;;;5079934;28;20388;-81
2021/09/26 01:52:18;;;;;;;3.83;1.98;;;17.10;99.90;;;;;;5077486;28;20640;-81
2021/09/26 01:54:45;;;;;;;3.63;1.65;;;17.10;99.90;;;;;;5079767;28;20089;-82
2021/09/26 01:57:11;;;;;;;4.07;1.90;;;17.00;99.90;;;;;;5083639;28;20032;-83
2021/09/26 01:59:37;;;;;;;3.90;2.00;;;17.00;99.90;;;;;;5080313;28;20028;-82
2021/09/26 02:02:03;;;;;;;5.18;1.55;;;16.90;99.90;;;;;;5078024;28;20558;-82
2021/09/26 02:04:30;;;;;;;2.90;1.50;;;16.90;99.90;;;;;;5078388;28;20099;-83
2021/09/26 02:06:56;;;;;;;2.65;1.17;;;16.90;99.90;;;;;;5082709;28;20020;-81
2021/09/26 02:09:22;;;;;;;3.22;1.60;;;16.80;99.90;;;;;;5076647;28;20016;-81
2021/09/26 02:11:50;;;;;;;3.53;1.30;;;16.80;99.90;;;;;;5080816;28;20032;-83
2021/09/26 02:14:16;;;;;;;3.03;1.40;;;16.80;99.90;;;;;;5078705;28;20024;-83
2021/09/26 02:16:42;;;;;;;2.90;1.30;;;16.80;99.90;;;;;;5080745;28;20481;-83
2021/09/26 02:19:10;;;;;;;3.22;1.70;;;16.70;99.90;;;;;;5078622;28;20036;-82
2021/09/26 02:21:36;;;;;;;3.13;1.48;;;16.70;99.90;;;;;;5076660;28;20600;-83
2021/09/26 02:24:03;;;;;;;2.72;1.20;;;16.70;99.90;;;;;;5083935;28;20034;-81
2021/09/26 02:26:31;;;;;;;2.90;1.13;;;16.70;99.90;;;;;;5079184;28;20545;-83
2021/09/26 02:28:57;;;;;;;3.33;1.33;;;16.60;99.90;;;;;;5080083;28;20054;-83
2021/09/26 02:31:23;;;;;;;3.15;1.20;;;16.60;99.90;;;;;;5081883;28;20032;-83
2021/09/26 02:33:48;;;;;;;2.13;1.00;;;16.60;99.90;;;;;;5080998;28;20041;-83
2021/09/26 02:36:16;;;;;;;2.50;0.90;;;16.60;99.90;;;;;;5080392;28;20054;-81
2021/09/26 02:38:42;;;;;;;2.30;1.08;;;16.50;99.90;;;;;;5081090;28;20024;-83
2021/09/26 02:41:30;;;;;;;3.17;1.02;;;16.50;99.90;;;;;;5078540;28;20025;-83
2021/09/26 02:44:20;;;;;;;2.38;1.02;;;16.50;99.90;;;;;;5082274;28;20155;-83
2021/09/26 02:46:52;;;;;;;2.83;1.17;;;16.50;99.90;;;;;;5091805;28;20027;-83
2021/09/26 02:49:19;;;;;;;1.92;0.85;;;16.50;99.90;;;;;;5082214;28;20162;-83
2021/09/26 02:51:45;;;;;;;2.60;1.13;;;16.40;99.90;;;;;;5080969;28;20033;-82
2021/09/26 02:54:12;;;;;;;2.70;1.25;;;16.40;99.90;;;;;;5078282;28;20075;-84
2021/09/26 02:56:38;;;;;;;2.85;1.00;;;16.40;99.90;;;;;;5080902;28;20020;-83
2021/09/26 02:59:04;;;;;;;4.93;1.63;;;16.40;99.90;;;;;;5078535;28;20424;-80
2021/09/26 03:01:30;;;;;;;2.10;0.93;;;16.40;99.90;;;;;;5078955;28;20020;-82
2021/09/26 03:04:02;;;;;;;3.13;1.42;;;16.40;99.90;;;;;;5080239;28;20028;-83
2021/09/26 03:06:27;;;;;;;2.40;1.00;;;16.30;99.90;;;;;;5079374;28;20042;-83
2021/09/26 03:08:53;;;;;;;2.45;1.27;;;16.30;99.90;;;;;;5084141;28;20491;-82
2021/09/26 03:11:18;;;;;;;2.40;1.10;;;16.30;99.90;;;;;;5087285;28;20021;-83
2021/09/26 03:13:44;;;;;;;2.20;1.08;;;16.30;99.90;;;;;;5083081;28;20032;-84
2021/09/26 03:16:10;;;;;;;2.17;1.08;;;16.30;99.90;;;;;;5085608;28;20021;-83
2021/09/26 03:18:35;;;;;;;1.88;0.95;;;16.30;99.90;;;;;;5084396;28;20083;-83
2021/09/26 03:21:01;;;;;;;1.90;0.93;;;16.30;99.90;;;;;;5082114;28;20044;-83
2021/09/26 03:23:27;;;;;;;2.58;1.20;;;16.30;99.90;;;;;;5083474;28;20043;-83
2021/09/26 03:25:52;;;;;;;3.42;1.35;;;16.30;99.90;;;;;;5084881;28;20017;-82
2021/09/26 03:28:18;;;;;;;2.00;0.80;;;16.20;99.90;;;;;;5081640;28;20494;-83
2021/09/26 03:30:44;;;;;;;1.40;0.75;;;16.20;99.90;;;;;;5083210;28;20032;-83
2021/09/26 03:33:09;;;;;;;3.22;1.00;;;16.20;99.90;;;;;;5083418;28;20029;-83
2021/09/26 03:35:37;;;;;;;2.00;0.90;;;16.20;99.90;;;;;;5089020;28;20036;-83
2021/09/26 03:38:05;;;;;;;3.38;1.23;;;16.20;99.90;;;;;;5088252;28;20031;-83
2021/09/26 03:40:30;;;;;;;2.78;0.95;;;16.20;99.90;;;;;;5083028;28;20063;-82
2021/09/26 03:42:56;;;;;;;2.03;1.00;;;16.20;99.90;;;;;;5090433;28;20029;-81
2021/09/26 03:45:22;;;;;;;2.03;0.98;;;16.20;99.90;;;;;;5085562;28;20021;-82
2021/09/26 03:47:48;;;;;;;1.63;0.80;;;16.20;99.90;;;;;;5084818;28;20032;-82
2021/09/26 03:50:14;;;;;;;1.50;0.68;;;16.10;99.90;;;;;;5083362;28;20033;-81
2021/09/26 03:52:40;;;;;;;2.22;1.05;;;16.10;99.90;;;;;;5085537;28;20473;-82
2021/09/26 03:55:08;;;;;;;2.22;1.00;;;16.10;99.90;;;;;;5084391;28;20032;-82
2021/09/26 03:57:34;;;;;;;2.05;1.10;;;16.10;99.90;;;;;;5088532;28;20069;-82
2021/09/26 04:00:01;;;;;;;1.80;0.70;;;16.00;99.90;;;;;;5084212;28;20020;-83
2021/09/26 04:02:26;;;;;;;1.95;1.00;;;16.00;99.90;;;;;;5080492;28;20115;-80
2021/09/26 04:04:52;;;;;;;2.70;1.10;;;16.00;99.90;;;;;;5078085;28;20524;-81
2021/09/26 04:07:18;;;;;;;2.33;1.00;;;15.90;99.90;;;;;;5086686;22;20136;-84
2021/09/26 04:09:43;;;;;;;2.70;0.85;;;15.90;99.90;;;;;;5031433;28;20126;-85
2021/09/26 04:12:09;;;;;;;1.90;0.80;;;15.90;99.90;;;;;;5034953;28;20029;-84
2021/09/26 04:14:35;;;;;;;2.10;1.10;;;15.90;99.90;;;;;;5035722;28;20013;-84
2021/09/26 04:17:01;;;;;;;2.03;0.90;;;15.90;99.90;;;;;;5044093;28;20083;-85
2021/09/26 04:19:26;;;;;;;2.33;0.90;;;15.80;99.90;;;;;;5032973;28;20094;-85
2021/09/26 04:21:52;;;;;;;2.22;1.17;;;15.90;99.90;;;;;;5013146;28;20029;-84
2021/09/26 04:24:18;;;;;;;1.58;0.70;;;15.80;99.90;;;;;;5030343;28;20046;-84
2021/09/26 04:26:44;;;;;;;1.80;0.70;;;15.80;99.90;;;;;;5031234;28;20026;-84
2021/09/26 04:29:10;;;;;;;2.58;0.95;;;15.80;99.90;;;;;;5030595;28;20052;-84
2021/09/26 04:31:36;;;;;;;2.50;0.95;;;15.80;99.90;;;;;;5030042;28;20026;-85
2021/09/26 04:34:02;;;;;;;2.45;1.10;;;15.80;99.90;;;;;;5030925;28;20618;-85
2021/09/26 04:36:27;;;;;;;2.88;1.23;;;15.80;99.90;;;;;;5030031;28;20025;-84
2021/09/26 04:38:53;;;;;;;1.88;0.93;;;15.80;99.90;;;;;;5032979;28;20043;-84
2021/09/26 04:41:19;;;;;;;2.33;0.98;;;15.80;99.90;;;;;;5012672;28;20024;-84
2021/09/26 04:43:44;;;;;;;2.67;1.08;;;15.80;99.90;;;;;;5029243;28;20054;-84
2021/09/26 04:46:10;;;;;;;1.88;0.90;;;15.80;99.90;;;;;;5030150;28;20024;-84
2021/09/26 04:48:36;;;;;;;2.40;1.10;;;15.80;99.90;;;;;;5031095;28;20041;-84
2021/09/26 04:51:02;;;;;;;2.72;1.17;;;15.80;99.90;;;;;;5026711;28;20029;-85
2021/09/26 04:53:28;;;;;;;2.95;1.20;;;15.70;99.90;;;;;;5029656;28;20062;-85
2021/09/26 04:55:53;;;;;;;1.85;0.77;;;15.70;99.90;;;;;;5029472;28;20022;-84
2021/09/26 04:58:19;;;;;;;2.58;0.90;;;15.70;99.90;;;;;;5010171;28;20774;-85
2021/09/26 05:00:48;;;;;;;1.80;0.80;;;15.70;99.90;;;;;;5013722;28;20026;-84
2021/09/26 05:03:14;;;;;;;2.45;1.08;;;15.60;99.90;;;;;;5028875;28;20105;-84
2021/09/26 05:05:41;;;;;;;2.97;1.23;;;15.70;99.90;;;;;;5031066;28;20026;-84
2021/09/26 05:08:06;;;;;;;2.05;0.95;;;15.60;99.90;;;;;;5013142;28;20041;-85
2021/09/26 05:10:32;;;;;;;2.80;0.82;;;15.60;99.90;;;;;;5010814;28;20026;-85
2021/09/26 05:12:58;;;;;;;2.28;0.80;;;15.60;99.90;;;;;;5028689;28;20749;-84
2021/09/26 05:15:24;;;;;;;3.30;1.15;;;15.60;99.90;;;;;;5028472;28;20029;-85
2021/09/26 05:17:50;;;;;;;2.08;0.85;;;15.60;99.90;;;;;;5023850;28;20049;-84
2021/09/26 05:20:16;;;;;;;2.20;0.80;;;15.60;99.90;;;;;;5041418;28;20024;-85
2021/09/26 05:22:42;;;;;;;2.17;0.95;;;15.60;99.90;;;;;;5031360;28;20068;-84
2021/09/26 05:25:08;;;;;;;2.33;1.15;;;15.60;99.90;;;;;;5028958;28;20090;-85
2021/09/26 05:27:34;;;;;;;3.63;1.10;;;15.50;99.90;;;;;;5028333;28;20018;-85
2021/09/26 05:29:59;;;;;;;2.10;1.05;;;15.60;99.90;;;;;;5026152;28;20030;-84
2021/09/26 05:32:25;;;;;;;1.90;1.08;;;15.70;99.90;;;;;;5027761;28;20490;-84
2021/09/26 05:34:51;;;;;;;2.60;0.98;;;15.60;99.90;;;;;;5011831;28;20061;-84
2021/09/26 05:37:16;;;;;;;1.45;0.82;;;15.60;99.90;;;;;;5029369;28;20026;-84
2021/09/26 05:39:42;;;;;;;2.60;1.10;;;15.60;99.90;;;;;;5030945;28;20029;-84
2021/09/26 05:42:08;;;;;;;1.52;0.68;;;15.60;99.90;;;;;;5011300;28;20084;-84
2021/09/26 05:44:36;;;;;;;1.98;0.85;;;15.60;99.90;;;;;;5010762;28;20113;-85
2021/09/26 05:47:03;;;;;;;2.22;0.90;;;15.60;99.90;;;;;;5028048;28;20092;-84
2021/09/26 05:49:29;;;;;;;2.05;1.10;;;15.70;99.90;;;;;;5028100;28;20073;-85
2021/09/26 05:51:54;;;;;;;3.30;1.15;;;15.60;99.90;;;;;;5028119;28;20037;-84
2021/09/26 05:54:21;;;;;;;2.83;1.02;;;15.70;99.90;;;;;;5024266;28;20033;-84
2021/09/26 05:56:47;;;;;;;2.08;1.20;;;15.70;99.90;;;;;;5020228;28;20026;-84
2021/09/26 05:59:12;;;;;;;1.73;0.80;;;15.70;99.90;;;;;;5009275;28;20394;-85
2021/09/26 06:01:39;;;;;;;2.60;0.95;;;15.70;99.90;;;;;;5028066;28;20082;-84
2021/09/26 06:04:04;;;;;;;1.75;0.90;;;15.80;99.90;;;;;;5029982;28;20025;-84
2021/09/26 06:06:30;;;;;;;4.47;1.63;;;15.90;99.90;;;;;;5023181;28;20029;-84
2021/09/26 06:08:56;;;;;;;2.67;0.80;;;15.90;99.90;;;;;;5003612;28;20034;-86
2021/09/26 06:11:23;;;;;;;1.77;0.90;;;16.00;99.90;;;;;;5044225;28;20049;-85
2021/09/26 06:13:49;;;;;;;1.60;0.90;;;16.00;99.90;;;;;;5033246;28;20044;-82
2021/09/26 06:16:14;;;;;;;2.55;1.10;;;16.10;99.90;;;;;;5033237;28;20026;-84
2021/09/26 06:18:40;;;;;;;2.60;1.27;;;16.10;99.90;;;;;;5020197;28;20030;-85
2021/09/26 06:21:06;;;;;;;2.13;1.10;;;16.10;99.90;;;;;;5026682;28;20027;-84
2021/09/26 06:23:32;;;;;;;3.35;1.00;;;16.20;99.90;;;;;;5027266;28;20075;-84
2021/09/26 06:26:00;;;;;;;2.00;0.85;;;16.20;99.90;;;;;;5038782;28;20022;-85
2021/09/26 06:28:26;;;;;;;2.83;1.02;;;16.20;99.90;;;;;;5010681;28;20367;-85
2021/09/26 06:30:53;;;;;;;3.53;1.30;;;16.20;99.90;;;;;;5027830;28;20026;-85
2021/09/26 06:33:18;;;;;;;2.38;0.75;;;16.20;99.90;;;;;;5026372;28;20046;-85
2021/09/26 06:35:44;;;;;;;2.63;1.45;;;16.30;99.90;;;;;;5026563;28;20042;-86
2021/09/26 06:38:10;;;;;;;1.65;0.98;;;16.30;99.90;;;;;;5009293;28;20022;-85
2021/09/26 06:40:36;;;;;;;2.10;0.90;;;16.30;99.90;;;;;;5024483;28;20013;-85
2021/09/26 06:43:02;;;;;;;2.50;1.10;;;16.40;99.90;;;;;;5028168;28;20022;-85
2021/09/26 06:45:28;;;;;;;1.73;0.95;;;16.50;99.90;;;;;;5028896;28;20108;-85
2021/09/26 06:47:53;;;;;;;2.55;1.23;;;16.60;99.90;;;;;;5012086;28;20029;-85
2021/09/26 06:50:19;;;;;;;3.13;1.30;;;16.60;99.90;;;;;;5021559;28;20029;-86
2021/09/26 06:52:47;;;;;;;2.55;1.20;;;16.70;99.90;;;;;;5029373;28;20034;-85
2021/09/26 06:55:14;;;;;;;2.88;1.23;;;16.80;99.90;;;;;;5029770;28;20030;-86
2021/09/26 06:57:39;;;;;;;2.55;1.00;;;16.90;99.90;;;;;;5028972;28;20025;-86
2021/09/26 07:00:06;;;;;;;2.60;1.00;;;17.00;99.90;;;;;;5007160;28;20525;-86
2021/09/26 07:02:32;;;;;;;2.53;0.80;;;17.00;99.90;;;;;;5014632;28;20030;-84
2021/09/26 07:04:59;;;;;;;2.83;1.20;;;17.10;99.90;;;;;;5021872;28;20022;-84
2021/09/26 07:07:25;;;;;;;4.70;1.88;;;17.10;99.90;;;;;;5015236;28;20187;-84
2021/09/26 07:09:52;;;;;;;3.53;1.63;;;17.20;99.90;;;;;;5046069;28;20034;-85
2021/09/26 07:12:19;;;;;;;3.95;1.70;;;17.20;99.90;;;;;;5030623;28;20101;-85
2021/09/26 07:14:46;;;;;;;3.17;1.30;;;17.20;99.90;;;;;;5027631;28;20029;-84
2021/09/26 07:17:13;;;;;;;3.15;1.27;;;17.20;99.90;;;;;;5027168;28;20048;-85
2021/09/26 07:19:39;;;;;;;3.20;1.35;;;17.40;99.90;;;;;;4998296;28;20375;-85
2021/09/26 07:22:05;;;;;;;3.88;1.98;;;17.50;99.90;;;;;;4997565;28;20022;-86
2021/09/26 07:24:31;;;;;;;2.33;1.20;;;17.70;99.90;;;;;;5003880;28;20034;-86
2021/09/26 07:26:57;;;;;;;2.30;1.10;;;17.80;99.90;;;;;;5010664;28;20022;-86
2021/09/26 07:29:24;;;;;;;2.78;1.20;;;18.00;99.90;;;;;;5031404;28;20184;-86
2021/09/26 07:31:50;;;;;;;2.60;1.00;;;18.10;99.90;;;;;;5022865;28;20439;-86
2021/09/26 07:34:16;;;;;;;2.63;1.30;;;18.00;99.90;;;;;;5030257;28;20034;-86
2021/09/26 07:36:43;;;;;;;2.38;1.20;;;18.00;99.90;;;;;;5033568;28;20030;-86
2021/09/26 07:39:09;;;;;;;7.97;1.38;;;18.00;99.90;;;;;;5016390;28;20606;-85
2021/09/26 07:41:38;;;;;;;3.20;1.23;;;18.10;99.90;;;;;;5031963;28;20022;-85
2021/09/26 07:44:03;;;;;;;3.53;1.30;;;18.10;99.90;;;;;;5030186;28;20430;-85
2021/09/26 07:46:29;;;;;;;2.28;1.65;;;18.20;99.90;;;;;;5046328;28;20044;-86
2021/09/26 07:48:55;;;;;;;3.55;1.60;;;18.20;99.90;;;;;;5033138;28;20018;-85
2021/09/26 07:51:20;;;;;;;1.95;1.20;;;18.40;99.90;;;;;;5029114;28;20029;-86
2021/09/26 07:53:46;;;;;;;2.25;1.02;;;18.50;99.90;;;;;;5030600;28;20040;-86
2021/09/26 07:56:12;;;;;;;1.80;0.85;;;18.50;99.90;;;;;;5026548;28;20061;-86
2021/09/26 07:58:38;;;;;;;2.03;0.98;;;18.70;99.90;;;;;;5030960;28;20033;-86
2021/09/26 08:01:04;;;;;;;3.13;1.23;;;18.70;99.90;;;;;;5029183;28;20041;-86
2021/09/26 08:03:31;;;;;;;2.67;1.00;;;18.70;99.90;;;;;;5030329;28;20069;-86
2021/09/26 08:05:57;;;;;;;2.97;1.17;;;18.80;99.90;;;;;;5011035;28;20037;-86
2021/09/26 08:08:23;;;;;;;2.53;1.17;;;18.90;99.90;;;;;;5026784;28;20034;-86
2021/09/26 08:10:49;;;;;;;2.97;1.00;;;19.00;99.90;;;;;;5029885;28;20030;-86
2021/09/26 08:13:16;;;;;;;2.35;0.93;;;19.20;99.90;;;;;;5030952;28;20018;-86
2021/09/26 08:15:42;;;;;;;1.92;1.00;;;19.40;99.90;;;;;;5034221;28;20053;-86
2021/09/26 08:18:07;;;;;;;2.40;0.80;;;19.60;99.90;;;;;;5032533;28;20032;-87
2021/09/26 08:20:33;;;;;;;2.40;1.05;;;19.80;99.90;;;;;;5025962;28;20021;-87
2021/09/26 08:22:59;;;;;;;1.27;0.75;;;19.90;99.90;;;;;;5027150;28;20072;-86
2021/09/26 08:25:24;;;;;;;2.63;1.08;;;19.90;99.90;;;;;;5028228;28;20029;-86
2021/09/26 08:27:51;;;;;;;1.60;0.77;;;19.90;99.90;;;;;;5031379;28;20040;-86
2021/09/26 08:30:19;;;;;;;2.95;1.20;;;19.90;99.90;;;;;;5030067;28;20041;-86
2021/09/26 08:32:46;;;;;;;2.40;1.02;;;19.90;99.90;;;;;;5032163;28;20022;-86
2021/09/26 08:35:12;;;;;;;2.38;1.08;;;19.80;99.90;;;;;;5032084;28;20072;-86
2021/09/26 08:37:38;;;;;;;1.52;0.65;;;19.80;99.90;;;;;;5005628;28;20030;-86
2021/09/26 08:40:06;;;;;;;1.83;0.98;;;19.80;99.90;;;;;;5021909;28;20022;-86
2021/09/26 08:42:34;;;;;;;1.88;0.73;;;19.80;99.90;;;;;;5030986;28;20021;-86
2021/09/26 08:45:01;;;;;;;3.40;1.40;;;19.90;99.90;;;;;;5029026;28;20052;-86
2021/09/26 08:47:27;;;;;;;1.92;0.90;;;20.10;99.90;;;;;;5015400;28;20026;-87
2021/09/26 08:49:53;;;;;;;1.38;0.75;;;20.20;99.90;;;;;;5031824;28;20041;-85
2021/09/26 08:52:19;;;;;;;1.88;0.90;;;20.30;99.90;;;;;;5027082;28;20033;-86
2021/09/26 08:54:44;;;;;;;2.10;0.93;;;20.40;99.90;;;;;;5031671;28;20040;-86
2021/09/26 08:57:10;;;;;;;1.67;0.90;;;20.30;99.90;;;;;;5011713;28;20041;-86
2021/09/26 08:59:36;;;;;;;3.00;1.02;;;20.20;99.90;;;;;;5013314;28;20097;-87
2021/09/26 09:02:02;;;;;;;2.20;0.98;;;20.20;99.90;;;;;;5029796;28;20030;-86
2021/09/26 09:04:39;;;;;;;2.17;0.90;;;20.20;99.90;;;;;;5025591;28;20121;-85
2021/09/26 09:07:10;;;;;;;1.70;0.80;;;20.10;99.90;;;;;;5027507;28;20029;-86
2021/09/26 09:09:58;;;;;;;2.60;0.85;;;20.10;99.90;;;;;;5027382;28;20083;-86
2021/09/26 09:12:26;;;;;;;1.90;0.77;;;20.00;99.90;;;;;;5011617;28;20040;-86
2021/09/26 09:15:07;;;;;;;1.95;0.88;;;20.00;99.90;;;;;;5025283;28;20030;-86
2021/09/26 09:17:42;;;;;;;1.95;0.80;;;20.00;99.90;;;;;;5011387;28;20060;-86
2021/09/26 09:20:27;;;;;;;1.77;0.80;;;20.10;99.90;;;;;;5007539;28;20037;-86
2021/09/26 09:22:56;;;;;;;2.55;0.90;;;20.20;99.90;;;;;;5026035;28;20006;-86
2021/09/26 09:25:31;;;;;;;1.85;0.63;;;20.40;99.90;;;;;;5005860;28;20030;-87
2021/09/26 09:28:02;;;;;;;1.92;1.02;;;20.50;99.90;;;;;;5003436;28;20037;-87
2021/09/26 09:30:36;;;;;;;2.00;1.00;;;20.50;99.90;;;;;;5020608;28;20073;-86
2021/09/26 09:33:05;;;;;;;2.17;1.23;;;20.60;99.90;;;;;;5023568;28;20049;-87
2021/09/26 09:35:49;;;;;;;2.38;1.08;;;20.60;99.90;;;;;;5029089;28;20041;-86
2021/09/26 09:38:33;;;;;;;3.08;1.20;;;20.30;99.90;;;;;;5027577;28;20697;-86
2021/09/26 09:40:59;;;;;;;2.20;0.90;;;20.10;99.90;;;;;;4997224;28;20049;-87
2021/09/26 09:43:29;;;;;;;2.20;1.05;;;20.00;99.90;;;;;;5022291;28;20022;-87
2021/09/26 09:46:01;;;;;;;2.35;1.17;;;20.00;99.90;;;;;;5014314;28;20014;-86
2021/09/26 09:48:31;;;;;;;2.38;1.10;;;19.80;99.90;;;;;;5014078;28;20037;-87
2021/09/26 09:50:59;;;;;;;2.78;1.67;;;19.70;99.90;;;;;;5040556;28;20031;-86
2021/09/26 09:53:41;;;;;;;2.05;0.88;;;19.60;99.90;;;;;;5041521;28;20022;-87
2021/09/26 09:56:06;;;;;;;2.72;1.13;;;19.50;99.90;;;;;;5051583;28;20029;-86
2021/09/26 09:59:02;;;;;;;2.47;1.15;;;19.40;99.90;;;;;;5035537;28;20030;-87
2021/09/26 10:01:32;;;;;;;2.35;1.00;;;19.40;99.90;;;;;;5000523;28;20041;-87
2021/09/26 10:04:00;;;;;;;3.17;1.20;;;19.40;99.90;;;;;;5007994;28;20024;-86
2021/09/26 10:06:40;;;;;;;3.22;1.67;;;19.20;99.90;;;;;;5028761;28;20037;-86
2021/09/26 10:09:23;;;;;;;2.25;1.00;;;19.10;99.90;;;;;;5003567;28;20049;-86
2021/09/26 10:11:55;;;;;;;2.92;1.35;;;18.90;99.90;;;;;;5009964;28;20078;-86
2021/09/26 10:14:23;;;;;;;2.95;1.42;;;18.90;99.90;;;;;;4992526;28;20061;-86
2021/09/26 10:16:50;;;;;;;2.10;1.27;;;18.70;99.90;;;;;;5009218;28;20014;-86
2021/09/26 10:19:21;;;;;;;2.70;1.38;;;18.70;99.90;;;;;;5026160;28;20468;-87
2021/09/26 10:21:48;;;;;;;2.72;1.05;;;18.60;99.90;;;;;;5029869;28;20041;-86
2021/09/26 10:24:14;;;;;;;3.15;1.52;;;18.60;99.90;;;;;;5046039;28;20036;-86
2021/09/26 10:26:43;;;;;;;3.25;1.60;;;18.50;99.90;;;;;;5042206;28;20025;-87
2021/09/26 10:29:10;;;;;;;2.42;1.40;;;18.60;99.90;;;;;;4998629;28;20026;-87
2021/09/26 10:31:37;;;;;;;3.13;1.23;;;18.60;99.90;;;;;;5006259;28;20035;-87
2021/09/26 10:34:04;;;;;;;3.05;1.50;;;18.70;99.90;;;;;;5006882;28;20053;-87
2021/09/26 10:36:34;;;;;;;2.53;1.45;;;18.70;99.90;;;;;;5007674;28;20031;-86
2021/09/26 10:39:03;;;;;;;2.55;1.17;;;18.80;99.90;;;;;;5025932;28;20560;-86
2021/09/26 10:41:30;;;;;;;2.60;1.30;;;18.90;99.90;;;;;;5026570;28;20030;-87
2021/09/26 10:43:56;;;;;;;2.92;1.27;;;19.00;99.90;;;;;;5027878;28;20078;-87
2021/09/26 10:46:23;;;;;;;2.90;1.45;;;19.00;99.90;;;;;;5022854;28;20030;-87
2021/09/26 10:49:11;;;;;;;4.07;1.60;;;19.00;99.90;;;;;;5009035;28;20081;-87
2021/09/26 10:51:53;;;;;;;3.60;1.27;;;19.00;99.90;;;;;;4991913;28;20026;-86
2021/09/26 10:54:22;;;;;;;3.92;2.08;;;19.10;99.90;;;;;;4993604;28;20026;-87
2021/09/26 10:57:03;;;;;;;2.28;1.23;;;19.10;99.90;;;;;;4993257;28;20108;-87
2021/09/26 10:59:35;;;;;;;;;;;19.10;99.90;;;;;;5010235;28;20065;-88
2021/09/26 11:02:21;;;;;;;;;;;19.10;99.90;;;;;;5011188;28;19944;-87
2021/09/26 11:05:01;;;;;;;5.90;1.10;;;19.00;99.90;;;;;;5011611;28;19894;-87
2021/09/26 11:07:45;;;;;;;2.95;1.33;;;18.90;99.90;;;;;;5010451;28;20061;-87
2021/09/26 11:10:11;;;;;;;2.80;1.15;;;18.80;99.90;;;;;;5011061;28;20018;-86
2021/09/26 11:12:44;;;;;;;2.58;1.27;;;18.70;99.90;;;;;;5030567;28;20060;-88
2021/09/26 11:15:11;;;;;;;2.75;1.23;;;18.70;99.90;;;;;;5029615;28;20030;-87
2021/09/26 11:17:47;;;;;;;2.50;1.05;;;18.60;99.90;;;;;;5030967;28;20018;-88
2021/09/26 11:20:25;;;;;;;3.15;1.30;;;18.60;99.90;;;;;;4998112;28;20098;-87
2021/09/26 11:23:06;;;;;;;3.30;1.50;;;18.60;99.90;;;;;;5004324;28;20032;-88
2021/09/26 11:25:57;;;;;;;3.40;1.60;;;18.60;99.90;;;;;;5009711;28;20086;-87
2021/09/26 11:28:40;;;;;;;1.90;0.90;;;18.50;99.90;;;;;;5020404;28;20036;-86
2021/09/26 11:31:11;;;;;;;2.70;1.20;;;18.60;99.90;;;;;;5016871;28;20370;-83
2021/09/26 11:33:58;;;;;;;2.88;1.25;;;18.70;99.90;;;;;;5020334;28;20033;-84
2021/09/26 11:36:26;;;;;;;2.63;1.50;;;18.80;99.90;;;;;;5030271;28;20053;-84
2021/09/26 11:38:53;;;;;;;2.95;1.38;;;18.90;99.90;;;;;;5025745;28;20027;-84
2021/09/26 11:41:36;;;;;;;2.95;1.17;;;19.00;99.90;;;;;;5021257;28;20026;-84
2021/09/26 11:44:07;;;;;;;3.17;1.48;;;19.10;99.90;;;;;;5027365;28;20034;-83
2021/09/26 11:46:34;;;;;;;3.13;1.70;;;19.10;99.90;;;;;;5016397;28;20045;-84
2021/09/26 11:49:05;;;;;;;3.28;1.52;;;19.20;99.90;;;;;;5013052;28;20029;-84
2021/09/26 11:51:31;;;;;;;;;;;19.20;99.90;;;;;;5013404;28;20030;-84
2021/09/26 11:53:58;;;;;;;2.90;1.60;;;19.20;99.90;;;;;;5013861;28;19905;-84
2021/09/26 11:56:35;;;;;;;6.03;2.08;;;19.20;99.90;;;;;;5030316;28;20030;-84
2021/09/26 11:59:11;;;;;;;3.90;1.73;;;19.30;99.90;;;;;;5020004;28;20033;-84
2021/09/26 12:01:40;;;;;;;3.50;1.55;;;19.30;99.90;;;;;;5021183;28;20022;-84
2021/09/26 12:04:24;;;;;;;3.00;1.52;;;19.30;99.90;;;;;;5016519;28;20074;-84
2021/09/26 12:07:04;;;;;;;3.45;1.67;;;19.50;99.90;;;;;;5028969;28;20071;-85
2021/09/26 12:09:35;;;;;;;3.60;1.42;;;19.50;99.90;;;;;;5018618;28;20077;-84
2021/09/26 12:12:05;;;;;;;4.05;2.10;;;19.70;99.90;;;;;;5008784;28;20089;-85
2021/09/26 12:14:31;;;;;;;2.17;1.05;;;19.80;99.90;;;;;;5013319;28;20026;-85
2021/09/26 12:17:05;;;;;;;2.97;1.30;;;19.90;99.90;;;;;;5024854;28;20085;-85
2021/09/26 12:19:31;;;;;;;1.90;1.00;;;20.10;99.90;;;;;;5024479;28;20022;-85
2021/09/26 12:22:03;;;;;;;3.33;1.55;;;20.30;99.90;;;;;;5026385;28;20029;-85
2021/09/26 12:24:56;;;;;;;3.60;1.58;;;20.50;99.90;;;;;;5032605;28;20521;-85
2021/09/26 12:27:30;;;;;;;3.40;1.55;;;20.70;99.90;;;;;;5025417;28;20094;-85
2021/09/26 12:30:09;;;;;;;3.47;1.48;;;20.90;99.90;;;;;;5023557;28;20087;-85
2021/09/26 12:32:40;;;;;;;3.17;1.63;;;21.00;99.90;;;;;;5017372;28;20022;-85
2021/09/26 12:35:13;;;;;;;2.67;1.17;;;21.00;99.90;;;;;;5002427;28;20060;-85
2021/09/26 12:37:48;;;;;;;2.47;1.23;;;20.90;99.90;;;;;;5023661;28;20467;-85
2021/09/26 12:40:22;;;;;;;2.90;1.25;;;20.90;99.90;;;;;;5007859;28;20073;-85
2021/09/26 12:42:56;;;;;;;3.30;1.48;;;20.90;99.90;;;;;;5022698;28;20031;-85
2021/09/26 12:45:31;;;;;;;2.97;1.30;;;20.90;99.90;;;;;;5026644;28;20010;-85
2021/09/26 12:48:00;;;;;;;2.38;1.20;;;20.90;99.90;;;;;;5012851;28;20034;-85
2021/09/26 12:50:27;;;;;;;2.80;1.30;;;21.00;99.90;;;;;;5026985;28;20507;-85
2021/09/26 12:53:07;;;;;;;3.00;1.30;;;20.90;99.90;;;;;;5016799;28;20038;-85
2021/09/26 12:55:36;;;;;;;1.95;0.90;;;21.10;99.90;;;;;;5027710;28;20022;-86
2021/09/26 12:58:03;;;;;;;2.50;1.13;;;21.10;99.90;;;;;;5022580;28;20092;-86
2021/09/26 13:00:35;;;;;;;3.03;1.30;;;21.30;99.90;;;;;;5016721;28;20014;-85